Time;durP1;ratioP1;P1;durP2;ratioP2;P2;SDS_P1;SDS_P2;PMS_P1;PMS_P2;Temp;Humidity;BMP_temperature;BMP_pressure;BME280_temperature;BME280_humidity;BME280_pressure;Samples;Min_cycle;Max_cycle;Signal;HPM_P1;HPM_P2
2022/11/26 00:00:44;;;;;;;35.67;12.23;;;;;;;;;;5050558;28;20040;-70
2022/11/26 00:03:10;;;;;;;36.00;12.68;;;;;;;;;;5048319;28;20044;-71
2022/11/26 00:05:37;;;;;;;36.25;13.20;;;;;;;;;;5029389;28;20045;-72
2022/11/26 00:08:03;;;;;;;32.22;12.20;;;;;;;;;;5042730;28;20057;-73
2022/11/26 00:10:33;;;;;;;30.27;12.20;;;;;;;;;;5048134;28;20392;-72
2022/11/26 00:12:59;;;;;;;38.05;12.18;;;;;;;;;;5044634;28;20053;-72
2022/11/26 00:15:26;;;;;;;31.13;11.30;;;;;;;;;;5047758;28;20056;-70
2022/11/26 00:17:52;;;;;;;31.92;12.45;;;;;;;;;;5048420;28;20064;-70
2022/11/26 00:20:20;;;;;;;35.97;11.98;;;;;;;;;;5031545;28;20049;-72
2022/11/26 00:22:48;;;;;;;30.40;12.98;;;;;;;;;;5043926;28;20084;-72
2022/11/26 00:25:22;;;;;;;40.13;12.73;;;;;;;;;;5046245;28;20057;-69
2022/11/26 00:27:48;;;;;;;37.10;12.65;;;;;;;;;;5050311;28;20044;-71
2022/11/26 00:30:34;;;;;;;32.15;11.38;;;;;;;;;;5044701;28;20036;-69
2022/11/26 00:33:00;;;;;;;37.20;11.48;;;;;;;;;;5046544;28;20112;-71
2022/11/26 00:35:26;;;;;;;38.42;12.73;;;;;;;;;;5049428;28;20049;-71
2022/11/26 00:37:54;;;;;;;39.80;13.15;;;;;;;;;;5045231;28;20053;-71
2022/11/26 00:40:21;;;;;;;29.98;12.32;;;;;;;;;;5047237;28;20048;-71
2022/11/26 00:42:48;;;;;;;27.10;11.27;;;;;;;;;;5046780;28;21844;-72
2022/11/26 00:45:24;;;;;;;31.25;12.02;;;;;;;;;;5046047;28;20037;-70
2022/11/26 00:47:50;;;;;;;29.80;11.50;;;;;;;;;;5046942;28;20037;-72
2022/11/26 00:50:18;;;;;;;23.80;10.18;;;;;;;;;;5047843;28;20041;-69
2022/11/26 00:52:44;;;;;;;23.48;10.60;;;;;;;;;;5047001;28;20041;-71
2022/11/26 00:55:17;;;;;;;20.63;10.13;;;;;;;;;;5048548;28;20124;-71
2022/11/26 00:57:43;;;;;;;20.90;9.95;;;;;;;;;;5043944;28;20095;-69
2022/11/26 01:00:13;;;;;;;28.40;10.30;;;;;;;;;;5046248;28;20040;-70
2022/11/26 01:02:39;;;;;;;32.35;10.57;;;;;;;;;;5044338;28;20040;-71
2022/11/26 01:05:07;;;;;;;35.38;12.73;;;;;;;;;;5048272;28;20065;-71
2022/11/26 01:07:33;;;;;;;24.35;9.32;;;;;;;;;;5045229;28;20118;-69
2022/11/26 01:09:59;;;;;;;31.67;11.30;;;;;;;;;;5047034;28;20076;-71
2022/11/26 01:12:25;;;;;;;34.00;12.23;;;;;;;;;;5047311;28;20052;-71
2022/11/26 01:14:51;;;;;;;26.23;11.73;;;;;;;;;;5047206;28;20044;-71
2022/11/26 01:17:17;;;;;;;26.88;11.10;;;;;;;;;;5044077;28;20049;-71
2022/11/26 01:19:43;;;;;;;23.08;10.70;;;;;;;;;;5029542;28;20488;-71
2022/11/26 01:22:18;;;;;;;27.15;10.88;;;;;;;;;;5047270;28;20053;-71
2022/11/26 01:24:44;;;;;;;25.77;10.70;;;;;;;;;;5045932;28;20048;-72
2022/11/26 01:27:11;;;;;;;27.77;11.02;;;;;;;;;;5046947;28;20132;-71
2022/11/26 01:29:37;;;;;;;31.15;11.13;;;;;;;;;;5047329;28;20045;-70
2022/11/26 01:32:03;;;;;;;25.23;10.43;;;;;;;;;;5044853;28;20080;-70
2022/11/26 01:34:29;;;;;;;37.00;11.68;;;;;;;;;;5047916;28;20131;-68
2022/11/26 01:36:55;;;;;;;28.75;11.80;;;;;;;;;;5046422;28;20037;-69
2022/11/26 01:39:22;;;;;;;53.30;14.50;;;;;;;;;;5044533;28;20136;-71
2022/11/26 01:42:06;;;;;;;69.43;15.98;;;;;;;;;;5048317;28;20045;-69
2022/11/26 01:44:34;;;;;;;52.97;14.48;;;;;;;;;;5045950;28;20041;-70
2022/11/26 01:47:00;;;;;;;51.90;13.85;;;;;;;;;;5045076;28;20044;-73
2022/11/26 01:49:31;;;;;;;37.30;14.02;;;;;;;;;;5043149;28;20045;-70
2022/11/26 01:52:00;;;;;;;52.95;15.38;;;;;;;;;;5040484;28;20056;-69
2022/11/26 01:54:26;;;;;;;46.78;14.35;;;;;;;;;;5030167;28;20049;-70
2022/11/26 01:56:54;;;;;;;93.63;16.02;;;;;;;;;;5046796;28;20037;-69
2022/11/26 01:59:20;;;;;;;35.35;12.60;;;;;;;;;;5044621;28;20085;-68
2022/11/26 02:01:47;;;;;;;85.03;16.30;;;;;;;;;;5029213;28;20530;-70
2022/11/26 02:04:24;;;;;;;114.50;15.80;;;;;;;;;;5046084;28;20072;-70
2022/11/26 02:06:51;;;;;;;74.35;16.33;;;;;;;;;;5044355;28;20064;-70
2022/11/26 02:09:19;;;;;;;118.55;15.25;;;;;;;;;;5046110;28;20521;-70
2022/11/26 02:11:45;;;;;;;40.47;12.88;;;;;;;;;;5046260;28;20045;-68
2022/11/26 02:14:19;;;;;;;52.35;15.18;;;;;;;;;;5047040;28;20460;-69
2022/11/26 02:16:50;;;;;;;39.85;14.32;;;;;;;;;;5047080;28;20539;-70
2022/11/26 02:19:19;;;;;;;82.90;14.70;;;;;;;;;;5047313;28;20082;-70
2022/11/26 02:21:52;;;;;;;87.75;15.98;;;;;;;;;;5045746;28;20068;-69
2022/11/26 02:24:18;;;;;;;;;;;;;;;;;;5043018;28;20480;-68
2022/11/26 02:26:51;;;;;;;130.20;16.10;;;;;;;;;;5046244;28;19943;-70
2022/11/26 02:29:21;;;;;;;55.22;11.77;;;;;;;;;;5044605;28;20053;-71
2022/11/26 02:31:51;;;;;;;240.00;17.50;;;;;;;;;;5044529;28;20079;-68
2022/11/26 02:34:52;;;;;;;160.88;18.05;;;;;;;;;;5044395;28;20052;-68
2022/11/26 02:37:24;;;;;;;40.60;15.48;;;;;;;;;;5025157;28;20052;-68
2022/11/26 02:39:51;;;;;;;40.08;14.07;;;;;;;;;;5040027;28;20041;-68
2022/11/26 02:42:31;;;;;;;46.67;15.13;;;;;;;;;;5045378;28;22016;-68
2022/11/26 02:45:00;;;;;;;50.17;15.88;;;;;;;;;;5042140;28;20041;-69
2022/11/26 02:47:28;;;;;;;53.33;17.08;;;;;;;;;;5042236;28;20072;-69
2022/11/26 02:49:55;;;;;;;52.33;16.70;;;;;;;;;;5030616;28;20041;-68
2022/11/26 02:52:22;;;;;;;31.23;13.45;;;;;;;;;;5043905;28;20124;-68
2022/11/26 02:54:49;;;;;;;79.82;18.38;;;;;;;;;;5044387;28;20156;-69
2022/11/26 02:57:18;;;;;;;57.42;16.33;;;;;;;;;;5046029;28;20037;-70
2022/11/26 02:59:44;;;;;;;542.50;34.08;;;;;;;;;;5043883;28;20046;-70
2022/11/26 03:02:13;;;;;;;66.63;15.20;;;;;;;;;;5043091;28;20060;-69
2022/11/26 03:04:42;;;;;;;173.90;16.20;;;;;;;;;;5044499;28;20048;-70
2022/11/26 03:07:09;;;;;;;209.43;16.73;;;;;;;;;;5042038;28;20408;-70
2022/11/26 03:09:48;;;;;;;103.55;13.20;;;;;;;;;;5048261;28;20041;-69
2022/11/26 03:12:14;;;;;;;37.67;15.07;;;;;;;;;;5042032;28;20045;-70
2022/11/26 03:14:40;;;;;;;147.43;18.70;;;;;;;;;;5044604;28;20643;-70
2022/11/26 03:17:06;;;;;;;53.97;15.43;;;;;;;;;;5047378;28;20124;-70
2022/11/26 03:19:32;;;;;;;57.95;17.63;;;;;;;;;;5041929;28;20052;-69
2022/11/26 03:21:58;;;;;;;53.78;17.63;;;;;;;;;;5044323;28;20044;-68
2022/11/26 03:24:24;;;;;;;53.85;18.85;;;;;;;;;;5045443;28;20053;-69
2022/11/26 03:26:50;;;;;;;49.08;16.27;;;;;;;;;;5045988;28;20033;-70
2022/11/26 03:29:15;;;;;;;101.03;20.15;;;;;;;;;;5044271;28;20059;-68
2022/11/26 03:31:41;;;;;;;54.75;17.02;;;;;;;;;;5042565;28;20056;-69
2022/11/26 03:34:08;;;;;;;44.72;17.88;;;;;;;;;;5045499;28;20124;-67
2022/11/26 03:36:34;;;;;;;38.45;16.27;;;;;;;;;;5045730;28;20036;-70
2022/11/26 03:38:59;;;;;;;63.17;19.73;;;;;;;;;;5043298;28;20044;-70
2022/11/26 03:41:26;;;;;;;63.80;19.73;;;;;;;;;;5044274;28;20140;-70
2022/11/26 03:43:52;;;;;;;49.80;20.58;;;;;;;;;;5042404;28;20041;-67
2022/11/26 03:46:18;;;;;;;68.25;22.35;;;;;;;;;;5045411;28;20131;-68
2022/11/26 03:48:43;;;;;;;55.75;21.33;;;;;;;;;;5039967;28;20099;-69
2022/11/26 03:51:09;;;;;;;55.70;19.30;;;;;;;;;;5044972;28;20481;-68
2022/11/26 03:53:35;;;;;;;48.55;18.50;;;;;;;;;;5042142;28;20029;-68
2022/11/26 03:56:01;;;;;;;200.98;24.48;;;;;;;;;;5044697;28;20133;-70
2022/11/26 03:58:27;;;;;;;161.38;22.30;;;;;;;;;;5045443;28;20051;-70
2022/11/26 04:00:53;;;;;;;103.72;22.40;;;;;;;;;;5045290;28;20454;-69
2022/11/26 04:03:19;;;;;;;113.10;23.58;;;;;;;;;;5044442;28;20053;-70
2022/11/26 04:05:45;;;;;;;137.60;25.30;;;;;;;;;;5049262;28;20132;-68
2022/11/26 04:08:12;;;;;;;83.00;22.23;;;;;;;;;;5049140;28;20053;-70
2022/11/26 04:10:38;;;;;;;157.10;27.17;;;;;;;;;;5047563;28;20049;-70
2022/11/26 04:13:04;;;;;;;159.77;24.02;;;;;;;;;;5047919;28;20097;-70
2022/11/26 04:15:30;;;;;;;154.38;20.80;;;;;;;;;;5047524;28;20049;-70
2022/11/26 04:17:56;;;;;;;263.35;27.95;;;;;;;;;;5046501;28;20037;-70
2022/11/26 04:20:22;;;;;;;392.35;30.50;;;;;;;;;;5048964;28;20045;-68
2022/11/26 04:22:47;;;;;;;87.13;21.40;;;;;;;;;;5046325;28;20073;-68
2022/11/26 04:25:13;;;;;;;307.65;30.30;;;;;;;;;;5049442;28;20071;-68
2022/11/26 04:27:39;;;;;;;142.25;24.27;;;;;;;;;;5046375;28;20047;-70
2022/11/26 04:30:06;;;;;;;106.75;20.95;;;;;;;;;;5048165;28;20066;-69
2022/11/26 04:32:32;;;;;;;92.68;23.42;;;;;;;;;;5048059;28;20045;-70
2022/11/26 04:34:58;;;;;;;74.90;19.50;;;;;;;;;;5045114;28;20064;-68
2022/11/26 04:37:24;;;;;;;72.25;21.17;;;;;;;;;;5046768;28;20064;-68
2022/11/26 04:39:50;;;;;;;203.30;31.55;;;;;;;;;;5045590;28;20041;-70
2022/11/26 04:42:16;;;;;;;79.28;19.58;;;;;;;;;;5045252;28;20415;-70
2022/11/26 04:44:42;;;;;;;158.10;24.35;;;;;;;;;;5048438;28;20052;-69
2022/11/26 04:47:08;;;;;;;276.92;28.42;;;;;;;;;;5047080;28;20041;-69
2022/11/26 04:49:34;;;;;;;435.25;37.45;;;;;;;;;;5040168;28;20052;-70
2022/11/26 04:52:00;;;;;;;275.90;23.20;;;;;;;;;;5045174;28;20142;-70
2022/11/26 04:54:26;;;;;;;434.42;28.38;;;;;;;;;;5049738;28;20049;-70
2022/11/26 04:56:52;;;;;;;423.27;27.60;;;;;;;;;;5046971;28;20044;-71
2022/11/26 04:59:18;;;;;;;472.45;33.72;;;;;;;;;;5047362;28;20503;-70
2022/11/26 05:01:44;;;;;;;463.13;36.17;;;;;;;;;;5045954;28;20085;-70
2022/11/26 05:04:10;;;;;;;258.35;26.98;;;;;;;;;;5050008;28;20033;-70
2022/11/26 05:06:36;;;;;;;302.13;32.42;;;;;;;;;;5039946;28;20049;-70
2022/11/26 05:09:02;;;;;;;356.13;29.65;;;;;;;;;;5045155;28;20099;-71
2022/11/26 05:11:28;;;;;;;515.10;35.35;;;;;;;;;;5047800;28;20044;-70
2022/11/26 05:13:54;;;;;;;386.10;30.45;;;;;;;;;;5046173;28;20067;-70
2022/11/26 05:16:20;;;;;;;396.08;32.95;;;;;;;;;;5048247;28;20044;-71
2022/11/26 05:18:46;;;;;;;343.40;27.58;;;;;;;;;;5046460;28;20059;-71
2022/11/26 05:21:12;;;;;;;416.88;36.28;;;;;;;;;;5046073;28;20488;-68
2022/11/26 05:23:38;;;;;;;328.75;31.63;;;;;;;;;;5045396;28;20036;-68
2022/11/26 05:26:04;;;;;;;319.67;31.23;;;;;;;;;;5049846;28;20439;-68
2022/11/26 05:28:30;;;;;;;264.92;30.65;;;;;;;;;;5046207;28;20144;-68
2022/11/26 05:30:59;;;;;;;178.18;28.33;;;;;;;;;;5045730;28;20057;-68
2022/11/26 05:33:26;;;;;;;306.73;33.47;;;;;;;;;;5043225;28;20042;-69
2022/11/26 05:35:52;;;;;;;357.50;36.67;;;;;;;;;;5028308;28;20036;-69
2022/11/26 05:38:18;;;;;;;365.63;35.10;;;;;;;;;;5046246;28;20444;-69
2022/11/26 05:40:44;;;;;;;335.98;33.08;;;;;;;;;;5046803;28;20040;-69
2022/11/26 05:43:10;;;;;;;384.20;38.03;;;;;;;;;;5049883;28;20037;-70
2022/11/26 05:45:35;;;;;;;378.15;38.65;;;;;;;;;;5047800;28;20045;-71
2022/11/26 05:48:01;;;;;;;299.38;34.47;;;;;;;;;;5026568;28;20131;-71
2022/11/26 05:50:27;;;;;;;271.70;34.13;;;;;;;;;;5043536;28;20556;-68
2022/11/26 05:52:53;;;;;;;361.15;36.63;;;;;;;;;;5038293;28;20048;-71
2022/11/26 05:55:19;;;;;;;445.73;40.53;;;;;;;;;;5041923;28;20399;-70
2022/11/26 05:57:45;;;;;;;373.45;33.70;;;;;;;;;;5048275;28;20041;-71
2022/11/26 06:00:12;;;;;;;140.10;26.60;;;;;;;;;;5042616;28;20554;-68
2022/11/26 06:02:38;;;;;;;92.28;27.40;;;;;;;;;;5041238;28;20043;-70
2022/11/26 06:05:04;;;;;;;365.65;42.95;;;;;;;;;;5044102;28;20040;-70
2022/11/26 06:07:31;;;;;;;85.78;25.27;;;;;;;;;;5046998;28;20501;-69
2022/11/26 06:09:56;;;;;;;160.95;28.67;;;;;;;;;;5042184;28;20435;-69
2022/11/26 06:12:23;;;;;;;92.70;27.10;;;;;;;;;;5045897;28;20048;-71
2022/11/26 06:14:49;;;;;;;106.13;25.55;;;;;;;;;;5040098;28;20041;-68
2022/11/26 06:17:16;;;;;;;115.70;26.38;;;;;;;;;;5044490;28;20049;-67
2022/11/26 06:19:42;;;;;;;111.03;25.60;;;;;;;;;;5042929;28;20098;-68
2022/11/26 06:22:08;;;;;;;63.22;23.05;;;;;;;;;;5039493;28;20132;-69
2022/11/26 06:24:34;;;;;;;54.20;23.30;;;;;;;;;;5043432;28;20049;-69
2022/11/26 06:27:00;;;;;;;173.35;29.88;;;;;;;;;;5046320;28;20498;-70
2022/11/26 06:29:26;;;;;;;152.82;28.00;;;;;;;;;;5042943;28;20079;-68
2022/11/26 06:31:52;;;;;;;77.30;25.02;;;;;;;;;;5039968;28;20088;-68
2022/11/26 06:34:18;;;;;;;102.15;27.88;;;;;;;;;;5044792;28;20079;-69
2022/11/26 06:36:44;;;;;;;177.50;31.52;;;;;;;;;;5044945;28;20118;-69
2022/11/26 06:39:10;;;;;;;118.65;28.90;;;;;;;;;;5044298;28;20079;-69
2022/11/26 06:41:39;;;;;;;68.78;25.60;;;;;;;;;;5047464;28;20043;-68
2022/11/26 06:44:05;;;;;;;88.38;26.13;;;;;;;;;;5044818;28;20048;-68
2022/11/26 06:46:33;;;;;;;54.78;23.63;;;;;;;;;;5042889;28;20032;-68
2022/11/26 06:49:01;;;;;;;52.78;23.38;;;;;;;;;;5044626;28;20044;-70
2022/11/26 06:51:27;;;;;;;55.28;21.83;;;;;;;;;;5045522;28;20041;-68
2022/11/26 06:53:53;;;;;;;68.22;22.10;;;;;;;;;;5044140;28;20050;-71
2022/11/26 06:56:20;;;;;;;65.45;23.63;;;;;;;;;;5044079;28;20045;-71
2022/11/26 06:58:47;;;;;;;92.03;26.48;;;;;;;;;;5044109;28;20459;-69
2022/11/26 07:01:22;;;;;;;55.38;22.00;;;;;;;;;;5043812;28;20041;-69
2022/11/26 07:03:48;;;;;;;77.20;23.25;;;;;;;;;;5043138;28;20052;-69
2022/11/26 07:06:19;;;;;;;50.13;21.30;;;;;;;;;;5044345;28;20061;-69
2022/11/26 07:08:45;;;;;;;66.00;23.65;;;;;;;;;;5044876;28;20045;-69
2022/11/26 07:11:11;;;;;;;79.05;24.35;;;;;;;;;;5044120;28;20522;-69
2022/11/26 07:13:37;;;;;;;50.40;21.90;;;;;;;;;;5044859;28;20069;-68
2022/11/26 07:16:04;;;;;;;64.82;22.02;;;;;;;;;;5044284;28;20049;-68
2022/11/26 07:18:30;;;;;;;79.40;23.55;;;;;;;;;;5045040;28;20389;-71
2022/11/26 07:20:57;;;;;;;56.55;21.50;;;;;;;;;;5042456;28;20121;-68
2022/11/26 07:23:22;;;;;;;59.40;21.73;;;;;;;;;;5044708;28;20053;-69
2022/11/26 07:25:48;;;;;;;70.03;22.73;;;;;;;;;;5044473;28;20120;-68
2022/11/26 07:28:14;;;;;;;61.53;21.25;;;;;;;;;;5045174;28;20094;-69
2022/11/26 07:30:40;;;;;;;55.10;21.25;;;;;;;;;;5043905;28;20061;-69
2022/11/26 07:33:06;;;;;;;65.55;23.63;;;;;;;;;;5042131;28;20136;-68
2022/11/26 07:35:32;;;;;;;67.05;23.52;;;;;;;;;;5044343;28;20057;-69
2022/11/26 07:37:58;;;;;;;57.38;24.20;;;;;;;;;;5045161;28;20071;-69
2022/11/26 07:40:24;;;;;;;70.95;24.42;;;;;;;;;;5048627;28;20052;-69
2022/11/26 07:42:50;;;;;;;66.72;24.90;;;;;;;;;;5031834;28;20637;-68
2022/11/26 07:45:16;;;;;;;63.90;25.58;;;;;;;;;;5047569;28;20048;-68
2022/11/26 07:47:42;;;;;;;65.80;24.08;;;;;;;;;;5045194;28;20041;-69
2022/11/26 07:50:09;;;;;;;61.40;24.92;;;;;;;;;;5047717;28;20415;-69
2022/11/26 07:52:35;;;;;;;70.03;26.52;;;;;;;;;;5048451;28;20044;-69
2022/11/26 07:55:01;;;;;;;61.17;25.75;;;;;;;;;;5042890;28;20037;-69
2022/11/26 07:57:27;;;;;;;67.05;26.60;;;;;;;;;;5049252;28;20041;-68
2022/11/26 07:59:53;;;;;;;58.15;26.02;;;;;;;;;;5046770;28;20044;-70
2022/11/26 08:02:19;;;;;;;66.28;27.27;;;;;;;;;;5047336;28;20132;-69
2022/11/26 08:04:45;;;;;;;62.85;27.48;;;;;;;;;;5048755;28;20048;-69
2022/11/26 08:07:11;;;;;;;65.38;27.80;;;;;;;;;;5044147;28;20090;-69
2022/11/26 08:09:37;;;;;;;62.50;27.15;;;;;;;;;;5046372;28;20080;-69
2022/11/26 08:12:03;;;;;;;63.80;27.88;;;;;;;;;;5043585;28;20488;-69
2022/11/26 08:14:29;;;;;;;68.90;28.85;;;;;;;;;;5048523;28;20107;-69
2022/11/26 08:16:56;;;;;;;65.50;29.98;;;;;;;;;;5040858;28;20037;-69
2022/11/26 08:19:22;;;;;;;60.42;30.05;;;;;;;;;;5030816;28;20103;-69
2022/11/26 08:21:48;;;;;;;72.95;30.63;;;;;;;;;;5026633;28;20488;-71
2022/11/26 08:24:16;;;;;;;63.17;28.50;;;;;;;;;;5052623;28;20036;-70
2022/11/26 08:26:43;;;;;;;61.47;28.85;;;;;;;;;;5051569;28;20049;-70
2022/11/26 08:29:09;;;;;;;63.53;30.38;;;;;;;;;;5049116;28;20044;-71
2022/11/26 08:31:35;;;;;;;69.47;30.45;;;;;;;;;;5046757;28;20045;-72
2022/11/26 08:34:02;;;;;;;68.38;31.00;;;;;;;;;;5049866;28;20045;-71
2022/11/26 08:36:29;;;;;;;67.53;31.83;;;;;;;;;;5042521;28;20051;-71
2022/11/26 08:38:56;;;;;;;68.13;32.33;;;;;;;;;;5042013;28;20045;-68
2022/11/26 08:41:22;;;;;;;72.85;32.42;;;;;;;;;;5043869;28;20064;-71
2022/11/26 08:43:48;;;;;;;67.72;31.75;;;;;;;;;;5028581;28;20442;-71
2022/11/26 08:46:14;;;;;;;69.80;31.30;;;;;;;;;;5044252;28;20077;-70
2022/11/26 08:48:40;;;;;;;66.15;29.52;;;;;;;;;;5043265;28;20500;-69
2022/11/26 08:51:08;;;;;;;70.10;31.17;;;;;;;;;;5042737;28;20098;-72
2022/11/26 08:53:34;;;;;;;66.57;32.05;;;;;;;;;;5043775;28;20053;-71
2022/11/26 08:56:05;;;;;;;55.75;29.17;;;;;;;;;;5044294;28;20372;-70
2022/11/26 08:58:36;;;;;;;74.25;31.95;;;;;;;;;;5042656;28;20393;-70
2022/11/26 09:01:08;;;;;;;76.07;31.80;;;;;;;;;;5042279;28;20037;-70
2022/11/26 09:03:34;;;;;;;73.95;33.67;;;;;;;;;;5041404;28;20600;-69
2022/11/26 09:06:01;;;;;;;75.53;32.90;;;;;;;;;;5043763;28;22424;-70
2022/11/26 09:08:27;;;;;;;70.93;32.72;;;;;;;;;;5038204;28;20048;-73
2022/11/26 09:10:54;;;;;;;72.93;33.30;;;;;;;;;;5041558;28;20071;-72
2022/11/26 09:13:20;;;;;;;62.38;31.77;;;;;;;;;;5024605;28;20053;-70
2022/11/26 09:15:47;;;;;;;61.13;30.80;;;;;;;;;;5042552;28;20475;-72
2022/11/26 09:18:12;;;;;;;58.35;30.30;;;;;;;;;;5037759;28;20088;-70
2022/11/26 09:20:38;;;;;;;69.15;32.22;;;;;;;;;;5041677;28;20037;-69
2022/11/26 09:23:04;;;;;;;56.13;30.55;;;;;;;;;;5039284;28;20179;-70
2022/11/26 09:25:30;;;;;;;61.75;31.27;;;;;;;;;;5026954;28;20047;-71
2022/11/26 09:27:56;;;;;;;70.10;32.38;;;;;;;;;;5042480;28;20103;-72
2022/11/26 09:30:22;;;;;;;63.60;31.65;;;;;;;;;;5025974;28;20519;-72
2022/11/26 09:32:48;;;;;;;54.60;31.38;;;;;;;;;;5041663;28;20048;-71
2022/11/26 09:35:14;;;;;;;66.00;31.38;;;;;;;;;;5042991;28;20045;-70
2022/11/26 09:37:40;;;;;;;58.10;30.88;;;;;;;;;;5044588;28;20041;-71
2022/11/26 09:40:07;;;;;;;62.35;32.38;;;;;;;;;;5042193;28;20110;-71
2022/11/26 09:42:42;;;;;;;69.95;32.50;;;;;;;;;;5025109;28;20068;-71
2022/11/26 09:45:25;;;;;;;64.90;32.70;;;;;;;;;;5038893;28;20068;-71
2022/11/26 09:47:52;;;;;;;68.40;35.95;;;;;;;;;;5042310;28;20055;-69
2022/11/26 09:50:23;;;;;;;74.93;35.90;;;;;;;;;;5042130;28;20076;-72
2022/11/26 09:52:54;;;;;;;80.20;38.08;;;;;;;;;;5039743;28;20043;-70
2022/11/26 09:55:22;;;;;;;88.03;39.83;;;;;;;;;;5040535;28;20048;-69
2022/11/26 09:57:51;;;;;;;81.70;38.45;;;;;;;;;;5039918;28;20056;-71
2022/11/26 10:00:21;;;;;;;83.50;40.05;;;;;;;;;;5040647;28;20582;-71
2022/11/26 10:02:47;;;;;;;88.65;41.88;;;;;;;;;;5040100;28;20052;-70
2022/11/26 10:05:13;;;;;;;88.88;41.20;;;;;;;;;;5042494;28;20044;-71
2022/11/26 10:07:39;;;;;;;109.70;45.92;;;;;;;;;;5040068;28;20071;-72
2022/11/26 10:10:05;;;;;;;93.75;43.33;;;;;;;;;;5042149;28;20142;-69
2022/11/26 10:12:31;;;;;;;116.72;45.75;;;;;;;;;;5040306;28;20051;-72
2022/11/26 10:15:08;;;;;;;119.72;45.33;;;;;;;;;;5033753;28;20528;-69
2022/11/26 10:17:52;;;;;;;139.48;49.58;;;;;;;;;;5041762;28;20053;-69
2022/11/26 10:20:21;;;;;;;128.40;49.83;;;;;;;;;;5041074;28;20171;-72
2022/11/26 10:22:53;;;;;;;125.43;49.15;;;;;;;;;;5039437;28;20093;-70
2022/11/26 10:25:21;;;;;;;117.15;49.10;;;;;;;;;;5041806;28;20037;-69
2022/11/26 10:27:48;;;;;;;154.00;52.67;;;;;;;;;;5026020;28;20448;-69
2022/11/26 10:30:19;;;;;;;125.53;49.95;;;;;;;;;;5038287;28;20074;-69
2022/11/26 10:32:46;;;;;;;131.20;53.03;;;;;;;;;;5039388;28;20551;-70
2022/11/26 10:35:14;;;;;;;139.93;52.20;;;;;;;;;;5040824;28;20408;-69
2022/11/26 10:37:42;;;;;;;135.70;51.67;;;;;;;;;;5024581;28;20045;-69
2022/11/26 10:40:11;;;;;;;129.05;52.25;;;;;;;;;;5042680;28;20045;-68
2022/11/26 10:42:41;;;;;;;130.48;53.47;;;;;;;;;;5038294;28;20040;-69
2022/11/26 10:45:23;;;;;;;135.02;50.78;;;;;;;;;;5036718;28;20195;-70
2022/11/26 10:47:49;;;;;;;135.80;53.45;;;;;;;;;;5036014;28;20533;-69
2022/11/26 10:50:23;;;;;;;132.60;51.38;;;;;;;;;;5040073;28;20045;-69
2022/11/26 10:52:50;;;;;;;135.00;52.60;;;;;;;;;;5020688;28;20041;-70
2022/11/26 10:55:23;;;;;;;125.50;52.92;;;;;;;;;;5039604;28;20417;-69
2022/11/26 10:58:09;;;;;;;129.38;52.60;;;;;;;;;;5037765;28;20530;-70
2022/11/26 11:00:43;;;;;;;141.05;54.60;;;;;;;;;;5028368;28;20424;-69
2022/11/26 11:03:21;;;;;;;126.43;52.83;;;;;;;;;;5036906;28;20053;-70
2022/11/26 11:05:47;;;;;;;129.55;49.30;;;;;;;;;;5039313;28;20389;-70
2022/11/26 11:08:27;;;;;;;116.63;49.88;;;;;;;;;;5036905;28;20060;-67
2022/11/26 11:10:55;;;;;;;116.03;49.58;;;;;;;;;;5038825;28;20111;-67
2022/11/26 11:13:22;;;;;;;116.00;50.03;;;;;;;;;;5023332;28;20388;-69
2022/11/26 11:15:58;;;;;;;111.03;48.38;;;;;;;;;;5039803;28;20041;-70
2022/11/26 11:18:25;;;;;;;109.30;47.28;;;;;;;;;;5040031;28;20049;-68
2022/11/26 11:20:52;;;;;;;97.97;44.80;;;;;;;;;;5039181;28;20642;-69
2022/11/26 11:23:21;;;;;;;98.57;43.38;;;;;;;;;;5040931;28;20041;-68
2022/11/26 11:25:57;;;;;;;101.47;44.35;;;;;;;;;;5040565;28;20075;-70
2022/11/26 11:28:25;;;;;;;93.18;41.35;;;;;;;;;;5039284;28;20229;-70
2022/11/26 11:31:12;;;;;;;95.97;42.70;;;;;;;;;;5037792;28;20056;-69
2022/11/26 11:33:38;;;;;;;90.00;40.70;;;;;;;;;;5038289;28;20045;-69
2022/11/26 11:36:16;;;;;;;96.38;41.08;;;;;;;;;;5037790;28;20043;-70
2022/11/26 11:38:50;;;;;;;91.15;40.03;;;;;;;;;;5039791;28;20529;-69
2022/11/26 11:41:33;;;;;;;83.60;39.10;;;;;;;;;;5040479;28;21259;-67
2022/11/26 11:43:59;;;;;;;;;;;;;;;;;;5035945;28;20629;-67
2022/11/26 11:46:25;;;;;;;87.63;37.90;;;;;;;;;;5040908;28;19925;-70
2022/11/26 11:49:10;;;;;;;91.45;38.22;;;;;;;;;;5036841;28;20053;-72
2022/11/26 11:51:40;;;;;;;80.95;35.80;;;;;;;;;;5035014;28;20045;-72
2022/11/26 11:54:16;;;;;;;75.63;34.63;;;;;;;;;;5036230;28;20049;-71
2022/11/26 11:56:54;;;;;;;84.80;34.38;;;;;;;;;;5038146;28;20140;-71
2022/11/26 11:59:23;;;;;;;68.32;33.50;;;;;;;;;;5036357;28;20404;-70
2022/11/26 12:01:59;;;;;;;77.53;32.30;;;;;;;;;;5035899;28;20037;-70
2022/11/26 12:04:34;;;;;;;72.28;31.70;;;;;;;;;;5035720;28;20103;-71
2022/11/26 12:07:19;;;;;;;68.03;31.58;;;;;;;;;;5022072;28;20106;-70
2022/11/26 12:09:57;;;;;;;67.38;30.33;;;;;;;;;;5038549;28;20049;-70
2022/11/26 12:12:26;;;;;;;63.15;28.85;;;;;;;;;;5035948;28;20419;-73
2022/11/26 12:14:57;;;;;;;60.28;29.92;;;;;;;;;;5038235;28;20045;-73
2022/11/26 12:17:31;;;;;;;60.13;28.65;;;;;;;;;;5037157;28;20053;-69
2022/11/26 12:20:01;;;;;;;62.22;28.45;;;;;;;;;;5036773;28;20052;-72
2022/11/26 12:22:37;;;;;;;63.38;28.33;;;;;;;;;;5037513;28;20143;-70
2022/11/26 12:25:07;;;;;;;66.82;28.88;;;;;;;;;;5038922;28;20033;-70
2022/11/26 12:27:43;;;;;;;56.13;26.42;;;;;;;;;;5039879;28;20063;-72
2022/11/26 12:30:13;;;;;;;59.63;26.48;;;;;;;;;;5040782;28;20052;-70
2022/11/26 12:32:47;;;;;;;68.53;28.05;;;;;;;;;;5041854;28;20040;-71
2022/11/26 12:35:27;;;;;;;59.10;27.52;;;;;;;;;;5040569;28;20049;-73
2022/11/26 12:37:57;;;;;;;58.20;25.30;;;;;;;;;;5040826;28;20099;-72
2022/11/26 12:40:23;;;;;;;52.15;23.85;;;;;;;;;;5041127;28;20096;-72
2022/11/26 12:42:58;;;;;;;52.33;24.77;;;;;;;;;;5041989;28;20068;-71
2022/11/26 12:45:36;;;;;;;49.83;25.05;;;;;;;;;;5039243;28;20041;-72
2022/11/26 12:48:07;;;;;;;54.33;24.50;;;;;;;;;;5041125;28;20102;-70
2022/11/26 12:50:38;;;;;;;50.42;24.85;;;;;;;;;;5042875;28;20048;-70
2022/11/26 12:53:17;;;;;;;58.03;25.20;;;;;;;;;;5038997;28;20124;-71
2022/11/26 12:55:46;;;;;;;59.45;24.30;;;;;;;;;;5039081;28;20065;-70
2022/11/26 12:58:14;;;;;;;60.53;24.67;;;;;;;;;;5038438;28;20123;-70
2022/11/26 13:00:40;;;;;;;55.78;23.48;;;;;;;;;;5039093;28;20041;-72
2022/11/26 13:03:13;;;;;;;51.92;22.08;;;;;;;;;;5038263;28;20171;-72
2022/11/26 13:05:39;;;;;;;48.67;20.23;;;;;;;;;;5040468;28;20097;-72
2022/11/26 13:08:14;;;;;;;49.45;21.33;;;;;;;;;;5024552;28;20054;-72
2022/11/26 13:10:59;;;;;;;48.55;20.98;;;;;;;;;;5023914;28;20047;-70
2022/11/26 13:13:43;;;;;;;47.65;18.92;;;;;;;;;;5040792;28;20648;-71
2022/11/26 13:16:18;;;;;;;54.45;20.80;;;;;;;;;;5038594;28;20514;-73
2022/11/26 13:18:47;;;;;;;44.75;20.27;;;;;;;;;;5039671;28;20037;-70
2022/11/26 13:21:30;;;;;;;39.13;18.80;;;;;;;;;;5020966;28;20041;-72
2022/11/26 13:24:13;;;;;;;44.65;19.65;;;;;;;;;;5040740;28;20045;-72
2022/11/26 13:26:45;;;;;;;45.00;18.48;;;;;;;;;;5040493;28;20049;-73
2022/11/26 13:29:30;;;;;;;39.03;18.55;;;;;;;;;;5040289;28;20083;-72
2022/11/26 13:32:08;;;;;;;43.28;18.83;;;;;;;;;;5037454;28;20045;-73
2022/11/26 13:34:39;;;;;;;42.63;18.48;;;;;;;;;;5039414;28;20059;-70
2022/11/26 13:37:24;;;;;;;43.25;19.17;;;;;;;;;;5040220;28;20734;-70
2022/11/26 13:39:49;;;;;;;39.42;18.88;;;;;;;;;;5040065;28;20045;-71
2022/11/26 13:42:24;;;;;;;42.90;18.50;;;;;;;;;;5039841;28;20037;-72
2022/11/26 13:45:08;;;;;;;40.08;18.40;;;;;;;;;;5036902;28;20041;-72
2022/11/26 13:47:43;;;;;;;43.75;17.95;;;;;;;;;;5039707;28;20052;-73
2022/11/26 13:50:12;;;;;;;42.78;17.95;;;;;;;;;;5038576;28;20053;-73
2022/11/26 13:52:38;;;;;;;39.92;18.50;;;;;;;;;;5040761;28;20396;-72
2022/11/26 13:55:25;;;;;;;55.90;19.33;;;;;;;;;;5038136;28;20041;-71
2022/11/26 13:57:54;;;;;;;47.55;19.85;;;;;;;;;;5055503;28;20098;-71
2022/11/26 14:00:46;;;;;;;49.95;21.15;;;;;;;;;;5036767;28;20068;-72
2022/11/26 14:03:31;;;;;;;42.10;20.73;;;;;;;;;;5036213;28;20037;-72
2022/11/26 14:05:57;;;;;;;52.70;21.60;;;;;;;;;;5037055;28;20037;-70
2022/11/26 14:08:34;;;;;;;43.42;21.30;;;;;;;;;;5037224;28;20071;-71
2022/11/26 14:11:00;;;;;;;43.47;20.40;;;;;;;;;;5037965;28;20053;-71
2022/11/26 14:13:26;;;;;;;44.97;19.73;;;;;;;;;;5037970;28;20069;-70
2022/11/26 14:15:52;;;;;;;42.70;18.30;;;;;;;;;;5038777;28;20045;-71
2022/11/26 14:18:38;;;;;;;41.30;18.63;;;;;;;;;;5039901;28;20045;-73
2022/11/26 14:21:11;;;;;;;47.13;19.77;;;;;;;;;;5039701;28;20041;-72
2022/11/26 14:23:37;;;;;;;;;;;;;;;;;;5037644;28;20122;-71